x

Buoy E01 - Central Maine Shelf (44032) Wave Buoy

1:04 - Thu 25th May 2017 All times are EDT. -4 hours from GMT.

  • Sig Wave height 2.6ft
  • Peak Period 8s
  • Wind
    4mph, 4mph gusts
  • Sea Temp 48°f
  • Aire Temp 48°f
  • Sea Pressure 1012.4mb
  • Buoy E01 - Central Maine Shelf
  • Buoy E01 - Central Maine Shelf

More Historic Weather Station data

Upgrade to MSW Pro to gain access to the past 30 days of data for over 8000 Wavebouys and Weather Stations around the globe.

Join Pro

Comparision Forecast

View Surf forecast
   
jue 05/25 1:04 2.5ft 8s 4 4 mph 1012.4mb 48f 48f
12:04 3ft 8s  -  2 mph 1012mb 48f 49f
mié 05/24 11:04 3ft 8s 2 2 mph 1011.9mb 48f 49f
10:04 3.5ft 6s 2 2 mph 1011.3mb 49f 49f
9:04 4.5ft 6s 2 4 mph 1010.8mb 49f 48f
8:04 4.5ft 8s 4 4 mph 1010.1mb 49f 49f
7:04 3.5ft 8s 2 4 mph 1010.6mb 49f 49f
6:04 3.5ft 8s 4 7 mph 1010.4mb 49f 49f
5:04 3ft 8s 9 9 mph 1009.2mb 49f 49f
4:04 2.5ft 8s 7 9 mph 1009.1mb 49f 50f
3:04 2.5ft 8s 7 9 mph 1009.5mb 49f 49f
2:04 2.5ft 8s 7 9 mph 1009.5mb 50f 50f
1:04 2.5ft 6s 7 7 mph 1009.1mb 50f 50f
12:04 2.5ft 6s 9 9 mph 1009.2mb 50f 52f
11:04 2.5ft 5s 9 9 mph 1008.9mb 49f 51f
10:04 2ft 6s 9 11 mph 1008.7mb 49f 51f
9:04 1.6ft 5s 9 9 mph 1008.9mb 49f 50f
8:04 2ft 8s 4 7 mph 1009.2mb 49f 49f
7:04 1.6ft 8s 2 4 mph 1009mb 49f 49f
6:04 1.6ft 5s 2 4 mph 1008.7mb 50f 50f
5:04 1.6ft 8s 2 9 mph 1008.5mb 50f 49f
4:04 1.6ft 5s 2 4 mph 1008.7mb 49f 49f
3:04 1.6ft 5s 4 7 mph 1009.1mb 48f 49f
2:04 2ft 5s 4 4 mph 1008.9mb 49f 50f
1:04 2ft 5s 7 7 mph 1009mb 50f 51f
12:04 2ft 5s 4 7 mph 1009.2mb 50f 51f
mar 05/23 11:04 2.5ft 5s 7 9 mph 1008.9mb 50f 51f
10:04 2.5ft 6s 4 7 mph 1009mb 50f 51f
9:04 2.5ft 6s 7 7 mph 1008.9mb 50f 51f
8:04 3ft 5s 7 9 mph 1008.7mb 50f 51f
7:04 3ft 6s 7 9 mph 1008.9mb 50f 51f
6:04 3ft 6s 11 13 mph 1008.9mb 51f 52f
5:04 2.5ft 6s 9 11 mph 1008.7mb 51f 51f
4:04 2.5ft 6s 9 11 mph 1009mb 50f 51f
3:04 2.5ft 6s 9 9 mph 1009.5mb 50f 52f
2:04 2.5ft 6s 11 13 mph 1010.2mb 51f 51f
1:04 2.5ft 6s 9 9 mph 1011.3mb 51f 51f
12:04 2.5ft 6s 4 7 mph 1011.7mb 50f 50f
11:04 2.5ft 5s 4 4 mph 1011.8mb 49f 49f
10:04 2.5ft 5s 4 7 mph 1012.5mb 49f 48f
9:04 2.5ft 5s 7 9 mph 1012.5mb 49f 47f
8:04 2.5ft 5s 7 9 mph 1012.7mb 48f 47f
7:04 2.5ft 5s 7 9 mph 1012.7mb 48f 48f
6:04 2.5ft 4s 4 7 mph 1013mb 48f 48f
5:04 2ft 4s 2 4 mph 1012.8mb 48f 48f
4:04 2.5ft 4s 2 4 mph 1013.3mb 48f 48f
3:04 2ft 4s 7 9 mph 1013.8mb 48f 48f
2:04 2ft 4s 11 13 mph 1014.4mb 47f 47f
1:04 2.5ft 5s 11 13 mph 1015.2mb 48f 47f
12:04 2.5ft 5s 16 18 mph 1015.9mb 48f 47f
lun 05/22 11:04 2.5ft 5s 13 18 mph 1016.5mb 48f 47f
10:04 2.5ft 5s 13 18 mph 1017.3mb 48f 47f
9:04 2.5ft 5s 13 18 mph 1017.9mb 48f 47f
8:04 3ft 4s 13 16 mph 1018.2mb 48f 47f
7:04 2.5ft 3s 18 22 mph 1018.9mb 49f 47f
6:04 1.6ft 3s 18 22 mph 1018.7mb 50f 50f
5:04 1.6ft 3s 16 18 mph 1019.3mb 50f 50f
4:04 1.3ft 3s 11 13 mph 1020mb 50f 50f
3:04 1ft 2s 13 13 mph 1020.7mb 50f 50f
2:04 1ft 3s 9 11 mph 1020.9mb 49f 50f
1:04 1ft 4s 11 13 mph 1021.9mb 50f 50f
12:04 1ft 4s 4 7 mph 1022.2mb 50f 51f
11:04 1.3ft 4s 4 4 mph 1022.7mb 50f 51f
10:04 1.3ft 4s 2 2 mph 1022.6mb 50f 51f
9:04 1.6ft 4s 2 2 mph 1022.8mb 50f 50f
8:04 1.6ft 4s 2 2 mph 1023mb 49f 51f
6:04 1.6ft 4s 11 16 mph 1022.7mb 49f 52f
5:04 1.3ft 4s 11 11 mph 1022.4mb 49f 51f
4:04 1.3ft 4s 4 7 mph 1022.2mb 49f 50f
3:04 1.3ft 4s 4 4 mph 1022.5mb 49f 50f
2:04 1.3ft 4s 2 4 mph 1023.2mb 50f 50f
1:04 1ft 4s 7 7 mph 1023.3mb 51f 51f
12:04 1.3ft 4s 7 7 mph 1023.5mb 51f 51f
dom 05/21 11:04 1.3ft 4s 4 4 mph 1023.7mb 51f 51f
10:04 1.6ft 4s 4 7 mph 1024.6mb 51f 51f
9:04 1.3ft 4s 4 7 mph 1024.8mb 50f 51f
8:04 1.6ft 4s 9 9 mph 1024.8mb 50f 52f
7:04 1.6ft 3s 11 11 mph 1024.6mb 51f 52f
6:04 2ft 3s 11 13 mph 1024.5mb 50f 52f
5:04 1.3ft 3s 11 13 mph 1024.6mb 51f 53f
4:04 1.3ft 3s 13 16 mph 1025.1mb 52f 53f
3:04 1ft 2s 13 16 mph 1026.1mb 52f 53f
2:04 0.7ft  -  11 13 mph 1026.5mb 51f 54f
1:04 1ft 8s 9 9 mph 1027mb 51f 53f
12:04 1ft 11s 11 11 mph 1028.1mb 51f 52f
11:04 1ft 8s 7 9 mph 1028.6mb 51f 52f
10:04 1ft 6s 4 4 mph 1028.7mb 50f 51f
9:04 1ft 6s 4 4 mph 1028.9mb 49f 51f
8:04 1ft 6s 7 9 mph 1029.1mb 49f 49f
7:04 1ft 6s 9 11 mph 1028.9mb 49f 49f